createdAt,value
2019-06-10T00:04:52.917Z,235.88
2019-06-10T00:13:14.855Z,223.80
2019-06-10T00:21:36.255Z,230.85
2019-06-10T00:29:58.102Z,231.40
2019-06-10T00:38:21.365Z,236.80
2019-06-10T00:46:41.091Z,239.35
2019-06-10T00:55:04.806Z,230.90
2019-06-10T01:03:25.381Z,225.25
2019-06-10T01:11:46.763Z,229.47
2019-06-10T01:20:08.520Z,246.57
2019-06-10T01:28:31.344Z,237.48
2019-06-10T01:36:51.642Z,243.20
2019-06-10T01:45:14.317Z,244.03
2019-06-10T01:53:34.646Z,235.65
2019-06-10T02:02:00.396Z,224.60
2019-06-10T02:10:22.438Z,243.82
2019-06-10T02:18:56.637Z,239.30
2019-06-10T02:27:04.966Z,231.72
2019-06-10T02:35:38.661Z,243.30
2019-06-10T02:43:48.452Z,240.50
2019-06-10T02:52:20.589Z,236.00
2019-06-10T03:00:44.347Z,267.70
2019-06-10T03:09:03.670Z,238.82
2019-06-10T03:17:25.823Z,220.33
2019-06-10T03:25:47.707Z,252.43
2019-06-10T03:34:14.322Z,237.17
2019-06-10T03:42:32.462Z,229.72
2019-06-10T03:50:52.454Z,239.93
2019-06-10T03:59:13.918Z,225.72
2019-06-10T04:07:35.722Z,251.05
2019-06-10T04:15:57.236Z,222.60
2019-06-10T04:24:20.152Z,224.25
2019-06-10T04:32:42.399Z,229.18
2019-06-10T04:41:04.232Z,223.40
2019-06-10T04:49:26.997Z,222.90
2019-06-10T04:57:47.282Z,228.22
2019-06-10T05:06:08.874Z,226.55
2019-06-10T05:14:32.737Z,232.70
2019-06-10T05:22:52.802Z,238.68
2019-06-10T05:31:13.177Z,225.50
2019-06-10T05:39:35.029Z,242.00
2019-06-10T05:47:55.782Z,235.28
2019-06-10T05:56:17.317Z,235.85
2019-06-10T06:04:38.836Z,235.43
2019-06-10T06:13:00.165Z,234.30
2019-06-10T06:21:26.432Z,236.32
2019-06-10T06:29:43.266Z,235.60
2019-06-10T06:38:04.488Z,235.60
2019-06-10T06:46:26.012Z,244.22
2019-06-10T06:54:47.369Z,234.70
2019-06-10T07:03:08.700Z,237.57
2019-06-10T07:11:31.080Z,245.40
2019-06-10T07:19:52.856Z,236.90
2019-06-10T07:28:13.039Z,241.80
2019-06-10T07:36:35.607Z,239.72
2019-06-10T07:44:55.975Z,235.55
2019-06-10T07:53:17.546Z,237.25
2019-06-10T08:01:44.725Z,238.68
2019-06-10T08:10:02.809Z,241.15
2019-06-10T08:18:22.498Z,250.15
2019-06-10T08:26:45.236Z,239.12
2019-06-10T08:35:04.858Z,248.60
2019-06-10T08:43:26.474Z,246.50
2019-06-10T08:51:50.005Z,242.60
2019-06-10T09:00:12.374Z,242.45
2019-06-10T09:08:32.522Z,236.55
2019-06-10T09:16:54.252Z,239.57
2019-06-10T09:25:13.865Z,233.93
2019-06-10T09:33:35.457Z,244.03
2019-06-10T09:42:02.433Z,242.87
2019-06-10T09:50:22.261Z,242.07
2019-06-10T09:58:44.450Z,238.80
2019-06-10T10:07:03.134Z,238.75
2019-06-10T10:15:30.736Z,248.93
2019-06-10T10:23:53.581Z,239.80
2019-06-10T10:32:07.560Z,252.72
2019-06-10T10:40:29.083Z,245.52
2019-06-10T10:48:51.509Z,242.10
2019-06-10T10:57:13.164Z,250.30
2019-06-10T11:05:36.048Z,244.87
2019-06-10T11:13:58.481Z,232.72
2019-06-10T11:22:18.543Z,243.33
2019-06-10T11:30:42.463Z,238.47
2019-06-10T11:39:02.782Z,240.20
2019-06-10T11:47:25.395Z,239.78
2019-06-10T11:55:47.620Z,247.05
2019-06-10T12:04:08.429Z,256.05
2019-06-10T12:12:32.880Z,257.77
2019-06-10T12:20:54.341Z,248.78
2019-06-10T12:29:12.674Z,241.38
2019-06-10T12:37:34.530Z,254.87
2019-06-10T12:45:56.256Z,260.48
2019-06-10T12:54:17.207Z,253.70
2019-06-10T13:02:38.628Z,255.22
2019-06-10T13:11:00.308Z,256.87
2019-06-10T13:19:23.107Z,259.65
2019-06-10T13:27:43.443Z,251.12
2019-06-10T13:36:06.827Z,252.47
2019-06-10T13:44:26.759Z,249.82
2019-06-10T13:52:48.514Z,253.90
2019-06-10T14:01:15.864Z,259.18
2019-06-10T14:09:32.963Z,249.32
2019-06-10T14:17:53.069Z,240.52
2019-06-10T14:26:16.877Z,253.32
2019-06-10T14:34:36.192Z,245.00
2019-06-10T14:42:57.735Z,246.05
2019-06-10T14:51:19.177Z,246.97
2019-06-10T14:59:42.526Z,244.40
2019-06-10T15:08:03.265Z,251.65
2019-06-10T15:16:23.978Z,245.48
2019-06-10T15:24:45.306Z,269.62
2019-06-10T15:33:06.798Z,255.07
2019-06-10T15:41:28.541Z,258.95
2019-06-10T15:49:52.089Z,261.65
2019-06-10T15:58:12.875Z,264.08
2019-06-10T16:06:33.552Z,267.75
2019-06-10T16:14:59.235Z,255.87
2019-06-10T16:23:23.173Z,268.45
2019-06-10T16:31:42.651Z,257.25
2019-06-10T16:40:04.165Z,272.77
2019-06-10T16:48:25.650Z,283.47
2019-06-10T16:56:47.295Z,261.82
2019-06-10T17:05:09.149Z,258.52
2019-06-10T17:13:30.503Z,241.42
2019-06-10T17:21:52.707Z,263.02
2019-06-10T17:30:13.395Z,259.25
2019-06-10T17:38:35.054Z,252.87
2019-06-10T17:46:56.492Z,248.53
2019-06-10T17:55:18.257Z,248.70
2019-06-10T18:03:40.130Z,240.55
2019-06-10T18:12:02.439Z,241.93
2019-06-10T18:20:24.343Z,246.75
2019-06-10T18:29:00.163Z,243.57
2019-06-10T18:37:06.170Z,279.68
2019-06-10T18:45:29.783Z,264.57
2019-06-10T18:53:50.651Z,280.83
2019-06-10T19:02:12.943Z,282.83
2019-06-10T19:10:43.367Z,284.35
2019-06-10T19:19:03.102Z,258.85
2019-06-10T19:27:24.836Z,245.40
2019-06-10T19:35:46.498Z,258.63
2019-06-10T19:44:08.136Z,261.02
2019-06-10T19:52:31.654Z,252.28
2019-06-10T20:00:54.072Z,248.28
2019-06-10T20:09:13.212Z,263.55
2019-06-10T20:17:35.458Z,256.90
2019-06-10T20:25:56.241Z,248.45
2019-06-10T20:34:17.813Z,275.25
2019-06-10T20:42:40.200Z,263.10
2019-06-10T20:51:02.871Z,245.27
2019-06-10T20:59:25.567Z,251.52
2019-06-10T21:07:45.109Z,271.98
2019-06-10T21:16:05.633Z,260.52
2019-06-10T21:24:27.286Z,252.18
2019-06-10T21:32:49.923Z,257.10
2019-06-10T21:41:12.675Z,250.68
2019-06-10T21:49:36.638Z,264.15
2019-06-10T21:57:57.945Z,253.22
2019-06-10T22:06:19.420Z,261.27
2019-06-10T22:14:42.215Z,241.55
2019-06-10T22:23:02.866Z,241.97
2019-06-10T22:31:26.321Z,249.85
2019-06-10T22:39:45.742Z,240.77
2019-06-10T22:48:07.174Z,267.60
2019-06-10T22:56:28.453Z,261.37
2019-06-10T23:04:51.037Z,255.12
2019-06-10T23:13:12.975Z,267.48
2019-06-10T23:21:32.396Z,288.73
2019-06-10T23:29:55.316Z,270.95
2019-06-10T23:38:15.294Z,259.60
2019-06-10T23:46:36.774Z,246.28
2019-06-10T23:54:58.239Z,250.03
